Dubai Fortune — H9SA — position and weather

sailwx.info

Track history (hours):
 
Tides and Currents Weather Stations Pressure Air Temp Water Temp Dewpoint Dewpoint Depression Visibility Wind Speed Wind Dir Waves Ship Positions

Dubai Fortune

Last reported at 2016-Jul-07 00:10 UTC. Time now 2016-Jul-24 04:58 UTC.
Position N 01°16' E 104°13'.
Warning: this ship's position is 17 days out of date.

Length 188 m; draft 6.6 m.

Type: Cargo ship. MMSI: 353316000.

Date/timePositionNaut miles runAvg speedWind from/ knotsBaromVisibWave heightAir tempDewpointWater temp
2016-Jul-07 00:10N 01°16' E 104°13'914.8
2016-Jul-06 23:33N 01°14' E 104°04'7 7.1
2016-Jul-06 22:33N 01°17' E 103°58'0 0.1
2016-Jul-06 21:32N 01°17' E 103°58'0 0.0
2016-Jul-06 20:29N 01°17' E 103°58'0 0.0
2016-Jul-06 19:32N 01°17' E 103°58'0 0.1
2016-Jul-06 18:32N 01°17' E 103°58'0 0.1
2016-Jul-06 17:26N 01°17' E 103°58'0 0.1
2016-Jul-06 16:20N 01°17' E 103°58'0 0.1
2016-Jul-06 15:32N 01°17' E 103°58'0 0.0
2016-Jul-06 14:20N 01°17' E 103°58'0 0.0
2016-Jul-06 13:14N 01°17' E 103°58'0 0.0
2016-Jul-06 12:32N 01°17' E 103°58'0 0.0
2016-Jul-06 11:32N 01°17' E 103°58'0 0.0
2016-Jul-06 10:32N 01°17' E 103°58'0 0.0
2016-Jul-06 09:34N 01°17' E 103°58'0 0.1
2016-Jul-06 08:33N 01°17' E 103°58'0 0.0
2016-Jul-06 07:32N 01°17' E 103°58'1 1.4
2016-Jul-06 06:34N 01°16' E 103°58'5 4.6
2016-Jul-06 05:33N 01°13' E 103°54'89 8.8
2016-Jul-05 19:27N 01°45' E 102°32'1111.1
2016-Jul-05 18:30N 01°50' E 102°22'1111.2
2016-Jul-05 17:31N 01°55' E 102°12'  
Track history (hours):
 
Tides and Currents Weather Stations Pressure Air Temp Water Temp Dewpoint Dewpoint Depression Visibility Wind Speed Wind Dir Waves Ship Positions

Dubai Fortune

Last reported at 2016-Jul-07 00:10 UTC. Time now 2016-Jul-24 04:58 UTC.
Position N 01°16' E 104°13'.
Warning: this ship's position is 17 days out of date.

Length 188 m; draft 6.6 m.

Type: Cargo ship. MMSI: 353316000.

Date/timePositionNaut miles runAvg speedWind from/ knotsBaromVisibWave heightAir tempDewpointWater temp
2016-Jul-07 00:10N 01°16' E 104°13'914.8
2016-Jul-06 23:33N 01°14' E 104°04'7 7.1
2016-Jul-06 22:33N 01°17' E 103°58'0 0.1
2016-Jul-06 21:32N 01°17' E 103°58'0 0.0
2016-Jul-06 20:29N 01°17' E 103°58'0 0.0
2016-Jul-06 19:32N 01°17' E 103°58'0 0.1
2016-Jul-06 18:32N 01°17' E 103°58'0 0.1
2016-Jul-06 17:26N 01°17' E 103°58'0 0.1
2016-Jul-06 16:20N 01°17' E 103°58'0 0.1
2016-Jul-06 15:32N 01°17' E 103°58'0 0.0
2016-Jul-06 14:20N 01°17' E 103°58'0 0.0
2016-Jul-06 13:14N 01°17' E 103°58'0 0.0
2016-Jul-06 12:32N 01°17' E 103°58'0 0.0
2016-Jul-06 11:32N 01°17' E 103°58'0 0.0
2016-Jul-06 10:32N 01°17' E 103°58'0 0.0
2016-Jul-06 09:34N 01°17' E 103°58'0 0.1
2016-Jul-06 08:33N 01°17' E 103°58'0 0.0
2016-Jul-06 07:32N 01°17' E 103°58'1 1.4
2016-Jul-06 06:34N 01°16' E 103°58'5 4.6
2016-Jul-06 05:33N 01°13' E 103°54'89 8.8
2016-Jul-05 19:27N 01°45' E 102°32'1111.1
2016-Jul-05 18:30N 01°50' E 102°22'1111.2
2016-Jul-05 17:31N 01°55' E 102°12'  

Dump ship's entire track history